GMT,Max TemperatureF,Mean TemperatureF,Min TemperatureF,Max Dew PointF,MeanDew PointF,Min DewpointF,Max Humidity, Mean Humidity, Min Humidity, Max Sea Level PressureIn, Mean Sea Level PressureIn, Min Sea Level PressureIn, Max VisibilityMiles, Mean VisibilityMiles, Min VisibilityMiles, Max Wind SpeedMPH, Mean Wind SpeedMPH, Max Gust SpeedMPH,PrecipitationIn, CloudCover, Events, WindDirDegrees
2012-12-1,45,41,37,41,39,36,100,92,81,30.14,30.09,30.04,16,6,6,18,9,,0.00,5,,305
2012-12-2,51,44,37,52,45,36,100,99,84,30.14,29.96,29.80,12,4,0,15,6,,0.08,6,Fog-Rain,222
2012-12-3,46,42,37,50,39,36,100,87,71,29.90,29.82,29.77,19,7,6,18,11,,0.04,3,Rain,261
2012-12-4,43,40,36,39,37,34,93,89,80,29.85,29.77,29.68,19,7,6,22,15,31,0.12,4,Rain,275
2012-12-5,41,37,33,39,34,30,100,86,69,30.09,29.98,29.77,19,7,6,18,12,,0.00,2,,306
2012-12-6,44,38,31,43,36,28,100,89,70,30.09,29.85,29.65,19,7,4,25,9,38,0.02,6,Rain,239
2012-12-7,46,42,39,39,37,35,87,80,60,30.24,29.98,29.71,19,7,6,25,17,38,0.00,2,Rain,306
2012-12-8,46,41,36,41,38,34,100,86,76,30.41,30.35,30.24,19,7,6,16,9,,0.00,4,,277
2012-12-9,46,43,40,45,42,41,100,94,87,30.33,30.25,30.21,19,7,4,127,9,,0.00,6,,268
2012-12-10,41,38,35,41,37,32,93,89,81,30.34,30.28,30.12,16,7,6,13,8,,0.00,5,Rain,57
2012-12-11,44,40,37,39,36,34,81,78,66,30.37,30.27,30.12,19,7,6,21,14,,0.00,6,,135
2012-12-12,46,44,41,45,42,36,100,90,72,30.14,29.86,29.65,19,6,1,21,17,,0.12,7,Rain,142
2012-12-13,46,42,39,46,40,34,100,90,71,29.68,29.43,29.06,16,6,2,23,16,,0.04,6,Rain,127
2012-12-14,48,44,39,48,44,39,100,96,81,29.00,28.82,28.74,19,5,1,31,17,46,0.08,4,Rain,217
2012-12-15,49,43,37,45,42,37,100,95,87,29.30,29.11,28.91,16,7,6,16,11,,0.03,3,Rain,223
2012-12-16,47,42,38,45,42,39,100,94,87,29.39,29.30,29.24,19,7,4,17,11,,0.16,4,Rain,213
2012-12-17,48,44,39,43,40,37,100,90,76,29.83,29.57,29.39,16,7,6,23,12,,0.02,2,,258
2012-12-18,48,43,40,48,43,39,100,94,87,30.00,29.91,29.68,19,6,2,29,9,43,0.28,6,Rain,133
2012-12-19,48,46,45,52,48,46,100,100,100,29.71,29.63,29.53,14,3,0,31,17,47,0.00,6,Fog-Rain,171
2012-12-20,46,44,41,47,45,41,100,100,97,29.62,29.51,29.44,11,2,0,9,5,,0.02,6,Fog-Rain,242
2012-12-21,50,44,39,50,44,39,100,100,97,29.84,29.71,29.50,12,3,0,21,7,,0.04,6,Fog-Rain,180
2012-12-22,54,49,44,54,53,50,100,100,94,29.52,29.37,29.27,9,3,0,32,16,44,0.28,6,Fog-Rain,211
2012-12-23,49,46,42,48,45,41,100,94,87,29.62,29.52,29.30,12,6,6,29,16,48,0.00,5,Rain,218
2012-12-24,49,46,42,48,45,41,100,96,87,29.54,29.30,29.12,16,7,4,20,13,31,0.12,6,Rain,195
2012-12-25,48,44,41,43,42,40,100,96,80,29.58,29.18,29.12,19,8,6,18,7,,0.04,5,Rain,262
2012-12-26,49,44,39,48,42,37,100,90,71,29.69,29.53,29.44,16,6,0,26,14,39,0.20,4,Fog-Rain,229
2012-12-27,50,44,39,50,42,39,100,91,75,29.97,29.71,29.36,19,6,0,21,12,,0.02,5,Fog-Rain,235
2012-12-28,51,46,42,52,50,48,100,99,88,29.87,29.62,29.39,9,5,2,34,23,55,0.08,7,Rain,203
2012-12-29,45,40,35,49,39,32,100,92,81,29.59,29.41,29.33,12,6,3,23,15,34,0.03,4,Rain,227
2012-12-30,50,42,34,48,43,34,100,91,81,29.78,29.67,29.50,16,6,4,33,18,47,0.04,5,Rain,231
2012-12-31,50,44,37,50,44,36,100,93,81,29.62,29.46,29.36,16,6,2,31,21,45,0.04,5,Rain,251